LFOH/LEH METAR and TAF weather

Enter ICAO airport designator
Station Type Date Time Source
LFOH METAR 2020/09/27 03:00 UTC NOAA

LFOH 270300Z AUTO 35020KT 320V040 9999 BKN029 OVC037 12/06 Q1011


Station Type Date Time Source
LFOH Decoded METAR 2020/09/27 03:00 UTC NOAA

La Heve, France (LFOH) 49-31N 000-04E 103M
Sep 26, 2020 - 11:00 PM EDT / 2020.09.27 0300 UTC
Wind: from the N (350 degrees) at 23 MPH (20 KT) (direction variable):0
Visibility: greater than 7 mile(s):0
Sky conditions: overcast
Temperature: 53 F (12 C)
Dew Point: 42 F (6 C)
Relative Humidity: 66%
Pressure (altimeter): 29.85 in. Hg (1011 hPa)
ob: LFOH 270300Z AUTO 35020KT 320V040 9999 BKN029 OVC037 12/06 Q1011
cycle: 3

Station Type Date Time Source
LFOH TAF 2020/09/26 18:09 UTC NOAA

TAF TAF LFOH 261803Z 2618/2712 CNL

Example: see airport list